Time;durP1;ratioP1;P1;durP2;ratioP2;P2;SDS_P1;SDS_P2;PMS_P1;PMS_P2;Temp;Humidity;BMP_temperature;BMP_pressure;BME280_temperature;BME280_humidity;BME280_pressure;Samples;Min_cycle;Max_cycle;Signal;HPM_P1;HPM_P2
2022/10/30 00:00:53;;;;;;;38.45;24.45;;;;;;;10.62;75.30;97692.57;1689285;84;28224;-73
2022/10/30 00:03:21;;;;;;;38.78;24.75;;;;;;;10.59;75.13;97689.75;1688771;84;25315;-73
2022/10/30 00:05:50;;;;;;;40.83;23.60;;;;;;;10.57;75.14;97692.34;1714615;83;25702;-73
2022/10/30 00:08:20;;;;;;;41.92;24.35;;;;;;;10.52;75.12;97692.10;1689183;84;26828;-74
2022/10/30 00:10:49;;;;;;;41.63;24.98;;;;;;;10.48;75.14;97694.92;1714451;83;25694;-72
2022/10/30 00:13:17;;;;;;;39.80;24.05;;;;;;;10.39;75.28;97692.38;1689217;84;28061;-73
2022/10/30 00:15:49;;;;;;;45.92;25.82;;;;;;;10.39;75.45;97689.69;1714547;83;25833;-75
2022/10/30 00:18:17;;;;;;;30.88;21.90;;;;;;;10.35;75.55;97680.35;1650291;86;25865;-74
2022/10/30 00:20:44;;;;;;;41.83;23.77;;;;;;;10.29;75.95;97685.20;1645951;86;26124;-76
2022/10/30 00:23:10;;;;;;;44.77;26.12;;;;;;;10.31;76.21;97689.05;1646250;87;25813;-73
2022/10/30 00:25:37;;;;;;;47.98;26.10;;;;;;;10.33;76.22;97690.52;1646222;87;27429;-72
2022/10/30 00:28:06;;;;;;;39.27;22.65;;;;;;;10.32;76.32;97690.71;1645943;86;25861;-73
2022/10/30 00:30:34;;;;;;;44.15;27.62;;;;;;;10.29;76.67;97687.89;1613471;87;25835;-73
2022/10/30 00:33:01;;;;;;;55.98;27.65;;;;;;;10.31;76.66;97692.58;1607369;88;26857;-72
2022/10/30 00:35:27;;;;;;;39.48;21.20;;;;;;;10.32;76.65;97700.98;1606272;88;25877;-72
2022/10/30 00:37:54;;;;;;;41.10;23.07;;;;;;;10.33;76.53;97701.30;1605444;88;28055;-72
2022/10/30 00:40:21;;;;;;;48.42;26.73;;;;;;;10.30;76.42;97687.38;1605599;89;25871;-72
2022/10/30 00:42:48;;;;;;;48.98;27.73;;;;;;;10.26;76.57;97691.02;1605740;88;25863;-72
2022/10/30 00:45:16;;;;;;;42.88;26.40;;;;;;;10.27;76.61;97688.61;1605565;89;26037;-72
2022/10/30 00:47:51;;;;;;;44.90;24.23;;;;;;;10.30;76.53;97690.08;1605377;89;25932;-72
2022/10/30 00:50:35;;;;;;;36.80;21.65;;;;;;;10.28;76.39;97691.63;1605661;89;28216;-73
2022/10/30 00:53:10;;;;;;;38.13;20.80;;;;;;;10.28;76.31;97690.27;1584577;89;25592;-72
2022/10/30 00:55:42;;;;;;;33.67;18.17;;;;;;;10.26;76.18;97685.63;1605399;88;25774;-73
2022/10/30 00:58:14;;;;;;;30.82;16.87;;;;;;;10.24;76.10;97691.73;1524479;94;27032;-72
2022/10/30 01:00:45;;;;;;;31.75;16.52;;;;;;;10.23;76.07;97698.16;1524469;94;25840;-71
2022/10/30 01:03:12;;;;;;;30.20;17.12;;;;;;;10.21;76.00;97690.78;1524732;94;28092;-73
2022/10/30 01:05:42;;;;;;;35.40;19.65;;;;;;;10.17;75.89;97690.83;1524131;94;25682;-73
2022/10/30 01:08:08;;;;;;;35.33;17.52;;;;;;;10.10;76.07;97689.98;1524615;94;25844;-73
2022/10/30 01:10:35;;;;;;;27.15;15.70;;;;;;;10.08;76.02;97690.18;1524625;94;26073;-72
2022/10/30 01:13:02;;;;;;;29.72;15.75;;;;;;;10.04;76.00;97690.26;1524293;94;25884;-72
2022/10/30 01:15:33;;;;;;;24.47;14.53;;;;;;;10.03;75.99;97689.11;1570684;89;27608;-75
2022/10/30 01:18:20;;;;;;;35.55;16.95;;;;;;;10.01;75.92;97699.29;1598176;89;26049;-75
2022/10/30 01:21:10;;;;;;;30.30;16.65;;;;;;;9.99;75.90;97702.18;1598294;89;25828;-73
2022/10/30 01:23:54;;;;;;;29.20;16.15;;;;;;;9.97;75.85;97700.20;1598141;89;26034;-75
2022/10/30 01:26:46;;;;;;;26.00;16.17;;;;;;;9.92;75.75;97697.77;1597859;89;25755;-73
2022/10/30 01:29:46;;;;;;;25.35;15.80;;;;;;;9.81;75.81;97698.34;1600141;89;27447;-75
2022/10/30 01:32:38;;;;;;;25.10;16.30;;;;;;;9.73;76.06;97700.17;1597852;89;25784;-74
2022/10/30 01:35:33;;;;;;;29.40;16.45;;;;;;;9.63;76.19;97691.63;1597795;89;25737;-71
2022/10/30 01:38:23;;;;;;;28.77;15.88;;;;;;;9.58;76.39;97688.67;1576750;90;26083;-71
2022/10/30 01:40:49;;;;;;;26.02;14.68;;;;;;;9.59;76.55;97695.73;1579010;90;25804;-72
2022/10/30 01:43:16;;;;;;;27.10;14.65;;;;;;;9.60;76.68;97685.27;1579063;90;27397;-72
2022/10/30 01:46:11;;;;;;;24.92;13.28;;;;;;;9.62;76.68;97687.77;1578990;90;25325;-73
2022/10/30 01:49:13;;;;;;;22.87;12.23;;;;;;;9.65;76.68;97692.77;1578996;90;25397;-74
2022/10/30 01:52:15;;;;;;;20.23;11.35;;;;;;;9.64;76.72;97696.50;1576920;90;26944;-72
2022/10/30 01:54:53;;;;;;;20.12;11.43;;;;;;;9.66;76.86;97708.72;1608977;85;26154;-72
2022/10/30 01:57:44;;;;;;;20.05;11.10;;;;;;;9.63;76.87;97702.41;1623263;88;27408;-73
2022/10/30 02:00:15;;;;;;;22.58;13.45;;;;;;;9.62;76.99;97696.69;1625014;88;25822;-73
2022/10/30 02:02:41;;;;;;;28.45;16.77;;;;;;;9.63;77.13;97691.63;1592028;90;25868;-72
2022/10/30 02:05:13;;;;;;;32.83;17.23;;;;;;;9.64;77.22;97683.86;1591837;90;26689;-74
2022/10/30 02:07:40;;;;;;;30.52;17.60;;;;;;;9.68;77.29;97678.36;1592362;89;26505;-72
2022/10/30 02:10:07;;;;;;;34.90;17.02;;;;;;;9.72;77.32;97668.86;1592151;90;26850;-74
2022/10/30 02:12:33;;;;;;;23.45;13.28;;;;;;;9.73;77.35;97675.91;1608733;88;25594;-72
2022/10/30 02:15:01;;;;;;;25.43;12.13;;;;;;;9.74;77.36;97672.70;1640973;87;25858;-75
2022/10/30 02:17:28;;;;;;;18.95;10.55;;;;;;;9.72;77.32;97672.06;1617946;88;26178;-71
2022/10/30 02:19:55;;;;;;;23.60;12.30;;;;;;;9.74;77.31;97676.23;1640879;87;25815;-74
2022/10/30 02:22:21;;;;;;;23.30;11.68;;;;;;;9.73;77.33;97665.13;1618248;88;27363;-74
2022/10/30 02:24:48;;;;;;;24.35;12.18;;;;;;;9.75;77.37;97665.77;1641085;87;25894;-74
2022/10/30 02:27:14;;;;;;;23.60;12.28;;;;;;;9.76;77.51;97669.30;1618006;88;25827;-72
2022/10/30 02:29:41;;;;;;;23.18;12.05;;;;;;;9.74;77.61;97672.19;1622344;87;26089;-72
2022/10/30 02:32:09;;;;;;;22.75;12.63;;;;;;;9.76;77.72;97673.34;1621430;87;25804;-72
2022/10/30 02:34:36;;;;;;;20.72;11.95;;;;;;;9.76;77.82;97667.95;1648940;85;28294;-74
2022/10/30 02:37:03;;;;;;;22.90;12.43;;;;;;;9.76;77.89;97677.38;1683370;84;25698;-72
2022/10/30 02:39:30;;;;;;;22.13;13.38;;;;;;;9.74;78.03;97668.15;1671770;84;25275;-74
2022/10/30 02:41:56;;;;;;;23.85;13.93;;;;;;;9.74;78.07;97670.01;1692036;84;26219;-72
2022/10/30 02:44:22;;;;;;;23.90;14.20;;;;;;;9.72;78.18;97660.77;1697960;84;26021;-71
2022/10/30 02:46:49;;;;;;;24.27;14.87;;;;;;;9.75;78.19;97660.37;1697686;84;28342;-72
2022/10/30 02:49:16;;;;;;;23.75;14.60;;;;;;;9.79;78.17;97662.65;1697878;84;25445;-71
2022/10/30 02:51:42;;;;;;;29.63;15.00;;;;;;;9.82;78.04;97660.91;1698027;83;25717;-72
2022/10/30 02:54:09;;;;;;;20.72;13.60;;;;;;;9.82;77.95;97668.48;1698090;84;25967;-72
2022/10/30 02:56:36;;;;;;;22.62;12.73;;;;;;;9.81;77.90;97663.28;1697731;84;25666;-72
2022/10/30 02:59:02;;;;;;;23.67;13.22;;;;;;;9.77;77.88;97663.39;1697958;83;28153;-72
2022/10/30 03:01:29;;;;;;;26.40;13.62;;;;;;;9.77;77.84;97668.78;1697877;83;25686;-72
2022/10/30 03:03:56;;;;;;;21.82;13.10;;;;;;;9.78;77.83;97669.91;1697665;84;25695;-72
2022/10/30 03:06:23;;;;;;;27.50;12.98;;;;;;;9.73;77.73;97666.48;1697828;83;26908;-72
2022/10/30 03:08:51;;;;;;;23.77;12.50;;;;;;;9.66;77.80;97676.37;1697685;84;25497;-72
2022/10/30 03:11:19;;;;;;;23.80;12.93;;;;;;;9.62;77.72;97679.17;1698090;84;27018;-72
2022/10/30 03:13:47;;;;;;;22.25;11.97;;;;;;;9.61;77.69;97693.67;1697806;83;26514;-72
2022/10/30 03:16:18;;;;;;;21.62;12.78;;;;;;;9.59;77.56;97700.29;1697943;84;25724;-75
2022/10/30 03:18:46;;;;;;;22.02;12.35;;;;;;;9.54;77.50;97694.68;1666701;85;26148;-74
2022/10/30 03:21:16;;;;;;;22.80;12.23;;;;;;;9.46;77.32;97701.03;1661232;86;25753;-72
2022/10/30 03:23:43;;;;;;;26.37;11.85;;;;;;;9.43;77.40;97696.55;1654033;85;27609;-73
2022/10/30 03:26:09;;;;;;;21.80;11.57;;;;;;;9.38;77.31;97693.95;1658470;86;25731;-75
2022/10/30 03:28:36;;;;;;;15.95;9.73;;;;;;;9.35;77.26;97688.94;1652873;86;25762;-72
2022/10/30 03:31:10;;;;;;;15.68;10.32;;;;;;;9.33;77.24;97698.24;1639528;85;25988;-72
2022/10/30 03:33:37;;;;;;;18.98;9.40;;;;;;;9.32;77.20;97706.00;1651500;85;25778;-73
2022/10/30 03:36:07;;;;;;;17.80;9.13;;;;;;;9.26;77.22;97706.80;1639511;85;27428;-74
2022/10/30 03:38:35;;;;;;;15.85;9.73;;;;;;;9.21;77.27;97701.99;1651578;85;25763;-71
2022/10/30 03:41:02;;;;;;;15.48;10.05;;;;;;;9.19;77.31;97692.44;1639841;85;25351;-71
2022/10/30 03:43:28;;;;;;;15.38;10.40;;;;;;;9.14;77.32;97690.86;1651325;86;26024;-74
2022/10/30 03:45:56;;;;;;;16.93;10.28;;;;;;;9.07;77.38;97675.98;1639812;85;25831;-72
2022/10/30 03:48:26;;;;;;;20.30;9.35;;;;;;;9.06;77.41;97670.81;1651569;86;27448;-72
2022/10/30 03:50:54;;;;;;;14.13;9.93;;;;;;;9.05;77.39;97678.58;1639800;85;25856;-74
2022/10/30 03:53:22;;;;;;;21.02;10.98;;;;;;;9.02;77.31;97677.93;1651705;85;25886;-72
2022/10/30 03:55:50;;;;;;;19.55;11.10;;;;;;;9.05;77.44;97681.27;1639834;87;26059;-72
2022/10/30 03:58:17;;;;;;;16.62;10.72;;;;;;;9.03;77.48;97682.29;1651416;85;25705;-73
2022/10/30 04:00:43;;;;;;;16.42;9.30;;;;;;;9.04;77.42;97687.16;1639909;85;28187;-72
2022/10/30 04:03:10;;;;;;;17.55;9.30;;;;;;;9.03;77.37;97684.98;1651537;86;25842;-75
2022/10/30 04:05:38;;;;;;;19.48;12.20;;;;;;;9.03;77.33;97686.33;1639518;85;25835;-74
2022/10/30 04:08:10;;;;;;;23.47;11.45;;;;;;;8.96;77.46;97684.08;1651399;85;26058;-74
2022/10/30 04:10:37;;;;;;;15.72;9.85;;;;;;;8.91;77.82;97683.84;1639957;85;25517;-72
2022/10/30 04:13:06;;;;;;;16.17;8.98;;;;;;;8.85;77.94;97680.56;1648082;86;27411;-73
2022/10/30 04:15:33;;;;;;;16.45;7.83;;;;;;;8.82;78.18;97667.48;1662383;85;25852;-71
2022/10/30 04:18:00;;;;;;;13.08;8.18;;;;;;;8.86;78.44;97672.81;1695438;84;25768;-72
2022/10/30 04:20:27;;;;;;;15.83;8.05;;;;;;;8.89;78.57;97667.05;1687613;85;25985;-74
2022/10/30 04:23:00;;;;;;;22.60;9.50;;;;;;;8.87;78.61;97668.27;1689782;84;25702;-72
2022/10/30 04:25:28;;;;;;;15.68;9.63;;;;;;;8.83;78.70;97670.50;1651856;86;27591;-72
2022/10/30 04:27:54;;;;;;;19.52;10.35;;;;;;;8.79;78.77;97666.55;1623573;88;25773;-72
2022/10/30 04:30:26;;;;;;;18.35;9.98;;;;;;;8.81;78.78;97671.75;1626928;86;25800;-71
2022/10/30 04:32:55;;;;;;;21.50;11.15;;;;;;;8.82;78.65;97678.77;1599798;89;26042;-72
2022/10/30 04:35:25;;;;;;;16.95;10.40;;;;;;;8.79;78.41;97674.63;1626818;88;25960;-72
2022/10/30 04:38:00;;;;;;;15.70;9.98;;;;;;;8.78;78.45;97672.95;1626823;87;27501;-72
2022/10/30 04:40:31;;;;;;;17.57;10.23;;;;;;;8.75;78.28;97665.27;1626731;88;25966;-75
2022/10/30 04:42:58;;;;;;;17.55;9.80;;;;;;;8.74;78.15;97670.84;1626847;88;25858;-74
2022/10/30 04:45:34;;;;;;;15.40;9.03;;;;;;;8.75;78.14;97665.77;1835566;77;25575;-74
2022/10/30 04:48:10;;;;;;;15.00;7.83;;;;;;;8.65;78.07;97672.33;1790862;80;25921;-73
2022/10/30 04:50:37;;;;;;;14.70;7.42;;;;;;;8.63;78.08;97677.57;1673026;85;27480;-74
2022/10/30 04:53:08;;;;;;;11.55;7.72;;;;;;;8.61;78.15;97675.58;1673426;85;25819;-74
2022/10/30 04:55:35;;;;;;;11.45;6.72;;;;;;;8.60;78.10;97681.98;1673390;85;26920;-74
2022/10/30 04:58:02;;;;;;;12.50;6.70;;;;;;;8.61;78.05;97682.30;1673030;85;25835;-74
2022/10/30 05:00:30;;;;;;;12.75;7.67;;;;;;;8.59;77.97;97678.45;1673675;85;25512;-73
2022/10/30 05:03:02;;;;;;;10.20;7.75;;;;;;;8.59;77.93;97676.28;1673553;85;27386;-74
2022/10/30 05:05:30;;;;;;;14.28;7.70;;;;;;;8.58;77.87;97672.75;1635770;87;25769;-73
2022/10/30 05:07:57;;;;;;;13.40;7.25;;;;;;;8.57;77.88;97680.50;1635917;87;25844;-73
2022/10/30 05:10:24;;;;;;;15.78;7.47;;;;;;;8.56;77.90;97678.87;1636003;87;26135;-74
2022/10/30 05:12:53;;;;;;;15.30;7.30;;;;;;;8.54;77.82;97679.56;1635989;87;25772;-76
2022/10/30 05:15:20;;;;;;;12.82;6.53;;;;;;;8.50;77.71;97681.47;1636032;87;27415;-74
2022/10/30 05:17:52;;;;;;;14.30;8.55;;;;;;;8.44;77.77;97675.53;1635928;87;25401;-73
2022/10/30 05:20:19;;;;;;;13.13;8.20;;;;;;;8.39;77.91;97679.29;1636074;87;25856;-73
2022/10/30 05:22:58;;;;;;;17.37;8.60;;;;;;;8.38;78.01;97676.27;1635717;87;25892;-76
2022/10/30 05:25:26;;;;;;;19.52;11.80;;;;;;;8.40;78.09;97679.61;1636029;87;25949;-73
2022/10/30 05:28:05;;;;;;;18.52;10.13;;;;;;;8.41;78.19;97682.63;1632537;87;28191;-76
2022/10/30 05:30:34;;;;;;;21.87;10.08;;;;;;;8.42;78.26;97685.64;1627644;88;25822;-73
2022/10/30 05:33:06;;;;;;;19.20;9.75;;;;;;;8.43;78.25;97688.14;1627667;88;25748;-74
2022/10/30 05:35:34;;;;;;;18.30;9.78;;;;;;;8.44;78.28;97686.29;1627508;88;25815;-74
2022/10/30 05:38:04;;;;;;;16.70;9.60;;;;;;;8.39;78.26;97684.67;1627546;88;25998;-72
2022/10/30 05:40:33;;;;;;;16.35;9.05;;;;;;;8.36;78.13;97682.35;1627612;88;27454;-75
2022/10/30 05:43:00;;;;;;;18.87;10.20;;;;;;;8.32;78.14;97685.13;1627247;88;25933;-76
2022/10/30 05:45:26;;;;;;;18.85;9.85;;;;;;;8.29;78.17;97695.20;1639599;87;25826;-75
2022/10/30 05:48:00;;;;;;;15.18;8.55;;;;;;;8.25;78.23;97685.84;1696288;83;25792;-74
2022/10/30 05:50:28;;;;;;;18.12;9.23;;;;;;;8.24;78.38;97686.86;1726334;82;25352;-76
2022/10/30 05:53:03;;;;;;;13.45;8.63;;;;;;;8.24;78.43;97688.20;1718749;82;27424;-73
2022/10/30 05:55:30;;;;;;;18.50;8.90;;;;;;;8.22;78.60;97687.55;1719829;82;25999;-73
2022/10/30 05:58:00;;;;;;;17.92;9.70;;;;;;;8.25;78.64;97691.21;1713990;82;25840;-74
2022/10/30 06:00:29;;;;;;;13.98;9.08;;;;;;;8.24;78.75;97688.20;1658437;86;25754;-74
2022/10/30 06:03:00;;;;;;;17.85;10.20;;;;;;;8.27;78.80;97695.90;1650319;85;25865;-74
2022/10/30 06:05:30;;;;;;;23.37;10.70;;;;;;;8.30;78.86;97692.00;1681135;85;28255;-75
2022/10/30 06:07:57;;;;;;;19.40;10.98;;;;;;;8.33;78.89;97690.83;1690700;84;25701;-74
2022/10/30 06:10:24;;;;;;;20.62;11.20;;;;;;;8.34;78.99;97683.05;1702154;84;25291;-74
2022/10/30 06:12:56;;;;;;;20.45;11.83;;;;;;;8.32;79.09;97682.44;1649436;86;25847;-73
2022/10/30 06:15:23;;;;;;;22.30;11.65;;;;;;;8.33;79.21;97674.69;1678615;85;25965;-73
2022/10/30 06:17:51;;;;;;;19.20;12.75;;;;;;;8.38;79.28;97683.00;1678063;85;27438;-73
2022/10/30 06:20:19;;;;;;;22.20;13.18;;;;;;;8.43;79.27;97690.83;1649378;86;25526;-74
2022/10/30 06:22:59;;;;;;;19.15;12.85;;;;;;;8.49;79.29;97687.37;1678303;85;25858;-74
2022/10/30 06:25:28;;;;;;;21.93;12.43;;;;;;;8.53;79.34;97690.00;1678306;85;25354;-73
2022/10/30 06:27:54;;;;;;;18.20;12.05;;;;;;;8.58;79.35;97691.59;1649437;86;25852;-73
2022/10/30 06:30:22;;;;;;;19.30;12.20;;;;;;;8.62;79.38;97691.53;1678300;85;27391;-74
2022/10/30 06:32:48;;;;;;;20.80;12.40;;;;;;;8.68;79.40;97693.16;1678267;85;25851;-74
2022/10/30 06:35:15;;;;;;;17.75;12.25;;;;;;;8.73;79.50;97692.88;1649250;86;25863;-76
2022/10/30 06:37:47;;;;;;;20.15;11.93;;;;;;;8.79;79.60;97701.55;1678210;85;25343;-74
2022/10/30 06:40:15;;;;;;;19.87;11.97;;;;;;;8.83;79.73;97702.80;1678153;85;25802;-73
2022/10/30 06:42:47;;;;;;;19.37;11.45;;;;;;;8.88;79.87;97699.55;1691864;84;28216;-73
2022/10/30 06:45:15;;;;;;;23.25;11.85;;;;;;;8.91;79.90;97705.38;1673367;85;32648;-74
2022/10/30 06:47:43;;;;;;;23.20;10.82;;;;;;;8.96;79.98;97702.92;1671242;85;25751;-73
2022/10/30 06:50:14;;;;;;;17.27;11.03;;;;;;;9.01;79.97;97708.58;1669538;85;25921;-75
2022/10/30 06:52:41;;;;;;;17.82;11.30;;;;;;;9.09;80.02;97714.32;1699394;84;25364;-75
2022/10/30 06:55:08;;;;;;;21.05;11.08;;;;;;;9.14;79.97;97705.16;1699406;84;28111;-75
2022/10/30 06:57:35;;;;;;;17.17;11.85;;;;;;;9.20;79.97;97705.71;1727417;82;25744;-74
2022/10/30 07:00:04;;;;;;;20.88;12.70;;;;;;;9.26;79.94;97700.07;1726844;82;25766;-74
2022/10/30 07:02:31;;;;;;;20.45;12.43;;;;;;;9.33;79.92;97704.98;1746087;82;25673;-75
2022/10/30 07:04:58;;;;;;;21.93;12.70;;;;;;;9.37;79.93;97700.36;1745725;82;25749;-75
2022/10/30 07:07:24;;;;;;;23.83;12.18;;;;;;;9.43;79.94;97705.46;1745714;81;28079;-74
2022/10/30 07:09:51;;;;;;;24.18;11.78;;;;;;;9.48;79.98;97705.72;1745642;82;25665;-74
2022/10/30 07:12:18;;;;;;;15.63;11.75;;;;;;;9.54;79.97;97708.16;1746210;82;25664;-75
2022/10/30 07:14:44;;;;;;;22.27;13.10;;;;;;;9.57;80.01;97709.08;1746088;82;25677;-73
2022/10/30 07:17:12;;;;;;;24.55;13.53;;;;;;;9.59;80.05;97710.55;1745738;81;25760;-72
2022/10/30 07:19:38;;;;;;;29.90;15.15;;;;;;;9.62;80.03;97711.52;1746182;82;28235;-75
2022/10/30 07:22:05;;;;;;;26.23;14.70;;;;;;;9.68;80.04;97701.27;1745871;82;25420;-74
2022/10/30 07:24:31;;;;;;;22.67;14.33;;;;;;;9.75;80.06;97701.33;1746150;82;25649;-74
2022/10/30 07:26:58;;;;;;;22.58;13.38;;;;;;;9.82;80.08;97705.39;1745951;82;25813;-74
2022/10/30 07:29:24;;;;;;;25.35;15.93;;;;;;;9.90;80.11;97702.55;1745869;82;25638;-73
2022/10/30 07:31:51;;;;;;;23.40;15.88;;;;;;;10.01;80.13;97701.98;1746032;81;27369;-73
2022/10/30 07:34:18;;;;;;;20.97;12.73;;;;;;;10.14;80.22;97702.05;1745991;82;25479;-73
2022/10/30 07:36:44;;;;;;;23.75;13.78;;;;;;;10.28;80.24;97705.11;1746181;82;25689;-73
2022/10/30 07:39:11;;;;;;;20.27;12.43;;;;;;;10.44;80.34;97695.31;1746004;82;25733;-73
2022/10/30 07:41:38;;;;;;;19.87;11.40;;;;;;;10.64;80.36;97701.27;1746147;82;25160;-73
2022/10/30 07:44:05;;;;;;;19.62;12.15;;;;;;;10.82;80.35;97701.52;1745909;81;27407;-73
2022/10/30 07:46:32;;;;;;;22.95;12.85;;;;;;;11.02;80.33;97695.61;1753012;81;25825;-74
2022/10/30 07:48:58;;;;;;;21.80;13.30;;;;;;;11.20;80.27;97699.06;1752916;81;25690;-73
2022/10/30 07:51:25;;;;;;;23.42;13.98;;;;;;;11.40;80.24;97694.98;1752695;81;25756;-76
2022/10/30 07:53:51;;;;;;;25.45;14.20;;;;;;;11.59;80.12;97694.15;1753133;81;25733;-73
2022/10/30 07:56:18;;;;;;;18.25;10.82;;;;;;;11.79;80.12;97681.95;1753017;81;27345;-72
2022/10/30 07:58:45;;;;;;;20.62;11.68;;;;;;;12.00;79.98;97680.32;1752641;81;25459;-74
2022/10/30 08:01:11;;;;;;;17.17;10.88;;;;;;;12.21;79.92;97676.48;1752505;81;25662;-74
2022/10/30 08:03:39;;;;;;;25.30;11.18;;;;;;;12.42;79.80;97674.84;1752647;81;25902;-76
2022/10/30 08:06:06;;;;;;;20.30;11.48;;;;;;;12.61;79.42;97674.41;1752943;81;25779;-74
2022/10/30 08:08:32;;;;;;;21.73;10.38;;;;;;;12.79;79.28;97679.10;1752963;81;28038;-74
2022/10/30 08:10:59;;;;;;;18.10;11.08;;;;;;;12.97;79.16;97673.74;1752873;81;25483;-75
2022/10/30 08:13:26;;;;;;;19.82;10.30;;;;;;;13.17;79.04;97675.80;1753169;81;25717;-74
2022/10/30 08:15:53;;;;;;;22.73;10.35;;;;;;;13.39;78.76;97682.20;1752978;81;25656;-74
2022/10/30 08:18:19;;;;;;;14.78;10.13;;;;;;;13.56;78.51;97683.27;1752898;81;25432;-74
2022/10/30 08:20:49;;;;;;;17.60;10.25;;;;;;;13.76;78.25;97680.38;1752980;81;27457;-75
2022/10/30 08:23:18;;;;;;;22.00;9.48;;;;;;;14.00;78.28;97677.61;1752767;81;25650;-74
2022/10/30 08:25:44;;;;;;;19.92;9.75;;;;;;;14.27;78.19;97669.11;1736229;82;25605;-75
2022/10/30 08:28:10;;;;;;;23.67;9.55;;;;;;;14.49;77.97;97664.88;1721593;83;25749;-74
2022/10/30 08:30:38;;;;;;;13.93;8.43;;;;;;;14.74;77.47;97668.81;1736146;82;25676;-75
2022/10/30 08:33:14;;;;;;;15.32;9.63;;;;;;;14.99;77.10;97671.36;1736230;82;28251;-74
2022/10/30 08:35:53;;;;;;;16.62;8.20;;;;;;;15.26;76.74;97670.42;1721218;83;25701;-74
2022/10/30 08:38:19;;;;;;;14.73;8.45;;;;;;;15.51;76.38;97664.23;1736499;82;26379;-74
2022/10/30 08:40:46;;;;;;;15.13;7.20;;;;;;;15.76;75.97;97659.94;1744508;82;25926;-74
2022/10/30 08:43:13;;;;;;;19.55;8.58;;;;;;;16.00;75.54;97651.20;1744599;82;25716;-73
2022/10/30 08:45:41;;;;;;;16.27;7.30;;;;;;;16.24;74.87;97647.89;1745755;82;27502;-73
2022/10/30 08:48:11;;;;;;;18.35;7.17;;;;;;;16.50;74.72;97643.23;1747546;82;25715;-73
2022/10/30 08:50:40;;;;;;;14.78;6.90;;;;;;;16.75;74.16;97650.56;1747619;82;25667;-75
2022/10/30 08:53:11;;;;;;;13.08;6.60;;;;;;;16.94;73.52;97647.07;1747521;82;25763;-73
2022/10/30 08:55:38;;;;;;;14.98;6.70;;;;;;;17.14;72.95;97647.98;1747348;82;25775;-75
2022/10/30 08:58:04;;;;;;;15.05;7.10;;;;;;;17.29;72.42;97650.94;1747049;82;27215;-74
2022/10/30 09:00:31;;;;;;;17.07;7.22;;;;;;;17.39;71.80;97648.36;1747392;82;25742;-77
2022/10/30 09:02:59;;;;;;;16.25;7.62;;;;;;;17.52;71.75;97658.94;1747243;82;25750;-76
2022/10/30 09:05:26;;;;;;;14.83;6.85;;;;;;;17.68;71.73;97657.84;1747270;82;25571;-74
2022/10/30 09:07:59;;;;;;;16.87;6.28;;;;;;;17.82;71.27;97656.42;1747187;82;25200;-76
2022/10/30 09:10:27;;;;;;;15.53;5.92;;;;;;;17.91;70.54;97648.91;1747555;82;27411;-75
2022/10/30 09:13:00;;;;;;;12.07;5.97;;;;;;;18.09;70.54;97645.06;1716627;83;25738;-74
2022/10/30 09:15:27;;;;;;;12.90;6.22;;;;;;;18.26;70.34;97636.25;1716631;83;25995;-74
2022/10/30 09:18:01;;;;;;;17.25;6.78;;;;;;;18.45;69.86;97627.73;1716282;83;25757;-75
2022/10/30 09:20:29;;;;;;;19.32;6.50;;;;;;;18.62;69.42;97627.11;1716188;83;25988;-76
2022/10/30 09:22:55;;;;;;;13.35;5.87;;;;;;;18.76;68.71;97621.52;1716501;83;27535;-76
2022/10/30 09:25:22;;;;;;;12.60;5.12;;;;;;;18.92;68.75;97623.87;1716589;83;25722;-74
2022/10/30 09:27:49;;;;;;;16.15;6.50;;;;;;;19.08;68.63;97619.38;1716516;83;25809;-74
2022/10/30 09:30:15;;;;;;;8.83;5.85;;;;;;;19.26;67.87;97620.33;1716501;83;25727;-74
2022/10/30 09:32:42;;;;;;;16.73;5.72;;;;;;;19.37;67.98;97617.95;1716450;83;25805;-74
2022/10/30 09:35:11;;;;;;;12.53;6.05;;;;;;;19.54;67.58;97621.41;1608805;89;26451;-76
2022/10/30 09:37:39;;;;;;;17.80;5.90;;;;;;;19.62;66.81;97616.80;1609130;89;26515;-75
2022/10/30 09:40:09;;;;;;;13.38;6.37;;;;;;;19.72;66.35;97607.81;1609278;89;25840;-74
2022/10/30 09:42:46;;;;;;;15.05;5.90;;;;;;;19.77;66.46;97605.95;1609405;89;26038;-77
2022/10/30 09:45:37;;;;;;;13.90;5.75;;;;;;;19.95;65.84;97607.94;1607202;87;25793;-74
2022/10/30 09:48:32;;;;;;;13.75;5.00;;;;;;;20.06;64.78;97601.41;1607787;89;27409;-73
2022/10/30 09:51:13;;;;;;;16.12;5.55;;;;;;;20.24;64.97;97609.72;1510140;94;26983;-74
2022/10/30 09:54:18;;;;;;;12.65;5.25;;;;;;;20.42;64.64;97600.48;1507579;94;26063;-74
2022/10/30 09:56:56;;;;;;;12.28;4.60;;;;;;;20.64;64.37;97602.20;1510422;94;25833;-74
2022/10/30 10:00:01;;;;;;;13.45;4.58;;;;;;;20.83;63.34;97599.21;1471820;96;25952;-77
2022/10/30 10:02:43;;;;;;;12.73;4.08;;;;;;;21.01;62.92;97597.30;1470307;97;27497;-74
2022/10/30 10:05:40;;;;;;;13.65;4.60;;;;;;;21.08;61.94;97570.97;1470392;97;25969;-74
2022/10/30 10:08:18;;;;;;;13.50;4.33;;;;;;;21.36;61.65;97588.84;1470357;97;25991;-74
2022/10/30 10:10:56;;;;;;;11.33;4.10;;;;;;;21.57;61.04;97589.08;1489218;95;25915;-75
2022/10/30 10:13:37;;;;;;;15.32;4.87;;;;;;;21.72;60.75;97579.44;1490588;96;25995;-72
2022/10/30 10:16:20;;;;;;;16.55;4.78;;;;;;;21.79;60.49;97554.41;1491034;96;27471;-72
2022/10/30 10:18:51;;;;;;;14.43;3.75;;;;;;;22.06;59.90;97567.27;1507831;92;26089;-72
2022/10/30 10:21:27;;;;;;;12.80;4.03;;;;;;;22.19;59.24;97572.71;1481005;96;25799;-74
2022/10/30 10:24:01;;;;;;;20.15;4.92;;;;;;;22.28;58.62;97573.76;1451458;98;25890;-74
2022/10/30 10:26:49;;;;;;;15.83;4.35;;;;;;;22.32;58.06;97574.85;1487741;92;25974;-73
2022/10/30 10:29:52;;;;;;;9.95;4.08;;;;;;;22.41;58.04;97562.70;1537158;93;27434;-72
2022/10/30 10:32:33;;;;;;;13.93;4.50;;;;;;;22.61;57.65;97568.06;1510363;94;26023;-72
2022/10/30 10:35:17;;;;;;;10.72;3.58;;;;;;;22.86;57.32;97565.73;1513388;94;25382;-72
2022/10/30 10:38:00;;;;;;;13.30;4.53;;;;;;;23.07;56.87;97556.75;1532951;93;25456;-72
2022/10/30 10:40:47;;;;;;;15.93;4.40;;;;;;;23.22;56.29;97556.08;1533438;93;25838;-75
2022/10/30 10:43:34;;;;;;;11.40;3.60;;;;;;;23.39;55.71;97552.91;1536023;93;28251;-72
2022/10/30 10:46:40;;;;;;;9.88;3.95;;;;;;;23.62;55.42;97553.53;1538547;92;25887;-73
2022/10/30 10:49:21;;;;;;;10.98;4.05;;;;;;;23.86;55.03;97542.52;1542815;92;25804;-73
2022/10/30 10:51:53;;;;;;;9.13;3.90;;;;;;;24.16;54.39;97544.61;1542701;92;25641;-73
2022/10/30 10:54:41;;;;;;;;;;;;;;;24.39;54.21;97539.67;1576727;91;25817;-72
2022/10/30 10:57:34;;;;;;;15.85;4.15;;;;;;;24.51;51.77;97544.75;1556931;91;27454;-76
2022/10/30 11:00:07;;;;;;;6.35;4.20;;;;;;;24.64;52.39;97543.98;1562944;91;25771;-73
2022/10/30 11:02:57;;;;;;;10.45;3.60;;;;;;;24.72;52.07;97542.77;1537419;93;25356;-75
2022/10/30 11:05:58;;;;;;;11.40;3.70;;;;;;;24.87;51.11;97539.52;1537732;93;26229;-72
2022/10/30 11:08:34;;;;;;;10.90;3.90;;;;;;;24.88;51.40;97536.99;1537761;93;25904;-73
2022/10/30 11:11:06;;;;;;;11.20;3.70;;;;;;;25.14;51.44;97531.34;1561914;91;27505;-73
2022/10/30 11:13:40;;;;;;;8.20;3.52;;;;;;;25.30;51.12;97526.39;1562722;91;25683;-72
2022/10/30 11:16:47;;;;;;;10.60;3.35;;;;;;;25.49;50.83;97527.95;1537644;93;25796;-73
2022/10/30 11:19:14;;;;;;;8.05;3.08;;;;;;;25.66;50.35;97530.73;1633964;87;25780;-72
2022/10/30 11:21:51;;;;;;;14.03;4.83;;;;;;;25.81;50.21;97527.12;1644193;87;25737;-75
2022/10/30 11:24:35;;;;;;;10.85;4.28;;;;;;;25.96;49.61;97530.14;1645342;85;27493;-73
2022/10/30 11:27:29;;;;;;;7.85;3.42;;;;;;;26.09;49.23;97527.91;1644911;86;25796;-72
2022/10/30 11:30:01;;;;;;;5.53;3.22;;;;;;;26.24;49.01;97529.54;1643815;87;25773;-76
2022/10/30 11:32:33;;;;;;;14.65;3.98;;;;;;;26.33;48.63;97531.86;1593747;90;25909;-75
2022/10/30 11:35:13;;;;;;;11.45;3.70;;;;;;;26.39;48.20;97528.42;1594266;89;25800;-73
2022/10/30 11:37:42;;;;;;;6.28;2.90;;;;;;;26.49;47.52;97530.97;1594019;89;27402;-75
2022/10/30 11:40:18;;;;;;;11.10;3.55;;;;;;;26.45;47.29;97518.87;1593820;90;25824;-73
2022/10/30 11:42:53;;;;;;;7.85;2.95;;;;;;;26.60;47.37;97515.77;1593784;90;25833;-73
2022/10/30 11:45:33;;;;;;;7.95;3.60;;;;;;;26.76;46.96;97517.05;1592817;90;25859;-75
2022/10/30 11:48:01;;;;;;;10.38;3.42;;;;;;;26.80;46.56;97515.86;1586944;90;25749;-73